Terminal Aerodrome Forecast
Issued by NWS Pueblo, CO

Home | Current Version | Previous Version | Text Only | Print | Product List | Glossary On
Versions: 1 2 3 4 5 6 7 8 9 10 11 12 13 14 15 16
000
FTUS45 KPUB 232046 AAC
TAFPUB
TAF AMD
KPUB 232046Z 2321/2418 11016KT P6SM VCTS OVC011CB
      TEMPO 2321/2323 -TSRA BKN012CB
     FM240100 04010KT P6SM VCSH SCT025 BKN070
     FM240700 03007KT P6SM SCT070 BKN120
     FM241300 08008KT P6SM SCT080 BKN150=

USA.gov is the U.S. government's official web portal to all federal, state and local government web resources and services.